sensor_id;sensor_type;location;lat;lon;timestamp;P1;durP1;ratioP1;P2;durP2;ratioP2
6763;SDS011;47432;48.760;9.178;2022-12-13T00:01:15;30.30;;;14.40;;
6763;SDS011;47432;48.760;9.178;2022-12-13T00:03:42;39.95;;;16.02;;
6763;SDS011;47432;48.760;9.178;2022-12-13T00:06:08;30.38;;;14.57;;
6763;SDS011;47432;48.760;9.178;2022-12-13T00:08:36;34.45;;;16.58;;
6763;SDS011;47432;48.760;9.178;2022-12-13T00:11:10;39.22;;;16.73;;
6763;SDS011;47432;48.760;9.178;2022-12-13T00:13:37;32.78;;;15.57;;
6763;SDS011;47432;48.760;9.178;2022-12-13T00:16:07;29.52;;;15.13;;
6763;SDS011;47432;48.760;9.178;2022-12-13T00:18:39;32.00;;;15.50;;
6763;SDS011;47432;48.760;9.178;2022-12-13T00:21:08;32.88;;;16.48;;
6763;SDS011;47432;48.760;9.178;2022-12-13T00:23:38;39.67;;;16.85;;
6763;SDS011;47432;48.760;9.178;2022-12-13T00:26:05;36.33;;;16.90;;
6763;SDS011;47432;48.760;9.178;2022-12-13T00:28:36;36.85;;;17.20;;
6763;SDS011;47432;48.760;9.178;2022-12-13T00:31:04;36.97;;;15.80;;
6763;SDS011;47432;48.760;9.178;2022-12-13T00:33:30;31.13;;;15.13;;
6763;SDS011;47432;48.760;9.178;2022-12-13T00:35:56;34.73;;;16.77;;
6763;SDS011;47432;48.760;9.178;2022-12-13T00:38:26;33.65;;;15.95;;
6763;SDS011;47432;48.760;9.178;2022-12-13T00:40:52;34.40;;;16.30;;
6763;SDS011;47432;48.760;9.178;2022-12-13T00:43:20;37.05;;;15.50;;
6763;SDS011;47432;48.760;9.178;2022-12-13T00:45:46;36.40;;;15.57;;
6763;SDS011;47432;48.760;9.178;2022-12-13T00:48:12;31.95;;;15.70;;
6763;SDS011;47432;48.760;9.178;2022-12-13T00:50:39;38.47;;;16.52;;
6763;SDS011;47432;48.760;9.178;2022-12-13T00:53:05;32.53;;;15.55;;
6763;SDS011;47432;48.760;9.178;2022-12-13T00:55:39;30.20;;;14.80;;
6763;SDS011;47432;48.760;9.178;2022-12-13T00:58:07;32.25;;;16.33;;
6763;SDS011;47432;48.760;9.178;2022-12-13T01:00:33;29.77;;;16.15;;
6763;SDS011;47432;48.760;9.178;2022-12-13T01:02:59;38.05;;;16.90;;
6763;SDS011;47432;48.760;9.178;2022-12-13T01:05:44;37.03;;;16.98;;
6763;SDS011;47432;48.760;9.178;2022-12-13T01:08:11;33.47;;;17.08;;
6763;SDS011;47432;48.760;9.178;2022-12-13T01:10:45;36.78;;;16.55;;
6763;SDS011;47432;48.760;9.178;2022-12-13T01:13:12;36.47;;;17.10;;
6763;SDS011;47432;48.760;9.178;2022-12-13T01:15:42;36.30;;;18.23;;
6763;SDS011;47432;48.760;9.178;2022-12-13T01:18:11;35.45;;;16.23;;
6763;SDS011;47432;48.760;9.178;2022-12-13T01:20:40;36.05;;;16.35;;
6763;SDS011;47432;48.760;9.178;2022-12-13T01:23:07;36.33;;;18.02;;
6763;SDS011;47432;48.760;9.178;2022-12-13T01:25:33;37.45;;;17.35;;
6763;SDS011;47432;48.760;9.178;2022-12-13T01:28:02;38.42;;;17.00;;
6763;SDS011;47432;48.760;9.178;2022-12-13T01:30:28;36.28;;;17.35;;
6763;SDS011;47432;48.760;9.178;2022-12-13T01:32:54;35.03;;;15.77;;
6763;SDS011;47432;48.760;9.178;2022-12-13T01:35:20;39.45;;;18.40;;
6763;SDS011;47432;48.760;9.178;2022-12-13T01:37:45;34.90;;;16.30;;
6763;SDS011;47432;48.760;9.178;2022-12-13T01:40:12;35.40;;;16.83;;
6763;SDS011;47432;48.760;9.178;2022-12-13T01:42:38;39.72;;;19.33;;
6763;SDS011;47432;48.760;9.178;2022-12-13T01:45:07;33.85;;;16.58;;
6763;SDS011;47432;48.760;9.178;2022-12-13T01:47:50;35.13;;;15.68;;
6763;SDS011;47432;48.760;9.178;2022-12-13T01:50:22;27.63;;;13.95;;
6763;SDS011;47432;48.760;9.178;2022-12-13T01:52:53;39.97;;;16.67;;
6763;SDS011;47432;48.760;9.178;2022-12-13T01:55:20;37.05;;;16.58;;
6763;SDS011;47432;48.760;9.178;2022-12-13T01:57:50;33.58;;;15.82;;
6763;SDS011;47432;48.760;9.178;2022-12-13T02:00:18;41.63;;;18.17;;
6763;SDS011;47432;48.760;9.178;2022-12-13T02:02:44;27.77;;;14.23;;
6763;SDS011;47432;48.760;9.178;2022-12-13T02:05:16;35.15;;;15.73;;
6763;SDS011;47432;48.760;9.178;2022-12-13T02:07:55;30.60;;;14.25;;
6763;SDS011;47432;48.760;9.178;2022-12-13T02:10:22;31.73;;;14.02;;
6763;SDS011;47432;48.760;9.178;2022-12-13T02:12:48;35.17;;;15.67;;
6763;SDS011;47432;48.760;9.178;2022-12-13T02:15:15;39.40;;;18.20;;
6763;SDS011;47432;48.760;9.178;2022-12-13T02:29:14;35.20;;;15.23;;
6763;SDS011;47432;48.760;9.178;2022-12-13T02:34:40;34.25;;;16.15;;
6763;SDS011;47432;48.760;9.178;2022-12-13T02:37:22;36.55;;;16.40;;
6763;SDS011;47432;48.760;9.178;2022-12-13T02:40:15;36.03;;;16.02;;
6763;SDS011;47432;48.760;9.178;2022-12-13T02:48:25;28.52;;;13.10;;
6763;SDS011;47432;48.760;9.178;2022-12-13T02:50:57;31.00;;;14.23;;
6763;SDS011;47432;48.760;9.178;2022-12-13T02:53:28;30.48;;;14.57;;
6763;SDS011;47432;48.760;9.178;2022-12-13T02:55:58;36.92;;;15.10;;
6763;SDS011;47432;48.760;9.178;2022-12-13T02:58:31;40.78;;;17.60;;
6763;SDS011;47432;48.760;9.178;2022-12-13T03:01:22;29.23;;;14.00;;
6763;SDS011;47432;48.760;9.178;2022-12-13T03:04:06;39.53;;;17.20;;
6763;SDS011;47432;48.760;9.178;2022-12-13T03:07:19;33.78;;;15.52;;
6763;SDS011;47432;48.760;9.178;2022-12-13T03:10:00;36.17;;;14.00;;
6763;SDS011;47432;48.760;9.178;2022-12-13T03:15:44;34.78;;;15.27;;
6763;SDS011;47432;48.760;9.178;2022-12-13T03:18:23;28.45;;;14.25;;
6763;SDS011;47432;48.760;9.178;2022-12-13T03:21:02;33.45;;;13.40;;
6763;SDS011;47432;48.760;9.178;2022-12-13T03:23:29;34.28;;;15.95;;
6763;SDS011;47432;48.760;9.178;2022-12-13T03:25:58;30.10;;;14.65;;
6763;SDS011;47432;48.760;9.178;2022-12-13T03:28:31;29.35;;;13.35;;
6763;SDS011;47432;48.760;9.178;2022-12-13T03:30:57;35.38;;;15.10;;
6763;SDS011;47432;48.760;9.178;2022-12-13T03:33:23;33.03;;;12.80;;
6763;SDS011;47432;48.760;9.178;2022-12-13T03:35:50;30.23;;;13.52;;
6763;SDS011;47432;48.760;9.178;2022-12-13T03:38:16;31.33;;;13.23;;
6763;SDS011;47432;48.760;9.178;2022-12-13T03:40:45;30.80;;;13.88;;
6763;SDS011;47432;48.760;9.178;2022-12-13T03:43:15;27.75;;;13.25;;
6763;SDS011;47432;48.760;9.178;2022-12-13T03:45:41;29.63;;;12.57;;
6763;SDS011;47432;48.760;9.178;2022-12-13T03:48:07;27.40;;;13.52;;
6763;SDS011;47432;48.760;9.178;2022-12-13T03:50:36;28.23;;;12.73;;
6763;SDS011;47432;48.760;9.178;2022-12-13T03:53:02;31.65;;;13.05;;
6763;SDS011;47432;48.760;9.178;2022-12-13T03:55:28;31.58;;;13.95;;
6763;SDS011;47432;48.760;9.178;2022-12-13T03:57:54;27.73;;;13.82;;
6763;SDS011;47432;48.760;9.178;2022-12-13T04:00:21;36.35;;;14.65;;
6763;SDS011;47432;48.760;9.178;2022-12-13T04:02:47;29.83;;;13.02;;
6763;SDS011;47432;48.760;9.178;2022-12-13T04:05:13;33.45;;;14.02;;
6763;SDS011;47432;48.760;9.178;2022-12-13T04:07:39;30.13;;;13.45;;
6763;SDS011;47432;48.760;9.178;2022-12-13T04:10:05;30.38;;;13.35;;
6763;SDS011;47432;48.760;9.178;2022-12-13T04:12:32;33.15;;;14.63;;
6763;SDS011;47432;48.760;9.178;2022-12-13T04:15:16;31.77;;;13.40;;
6763;SDS011;47432;48.760;9.178;2022-12-13T04:17:42;30.25;;;12.00;;
6763;SDS011;47432;48.760;9.178;2022-12-13T04:20:13;31.88;;;12.63;;
6763;SDS011;47432;48.760;9.178;2022-12-13T04:22:39;26.55;;;11.38;;
6763;SDS011;47432;48.760;9.178;2022-12-13T04:25:05;33.35;;;13.43;;
6763;SDS011;47432;48.760;9.178;2022-12-13T04:27:31;29.10;;;13.00;;
6763;SDS011;47432;48.760;9.178;2022-12-13T04:29:58;26.30;;;11.93;;
6763;SDS011;47432;48.760;9.178;2022-12-13T04:32:24;28.40;;;14.30;;
6763;SDS011;47432;48.760;9.178;2022-12-13T04:34:52;26.48;;;12.63;;
6763;SDS011;47432;48.760;9.178;2022-12-13T04:37:18;25.73;;;12.18;;
6763;SDS011;47432;48.760;9.178;2022-12-13T04:39:44;28.45;;;13.63;;
6763;SDS011;47432;48.760;9.178;2022-12-13T04:42:13;28.15;;;12.05;;
6763;SDS011;47432;48.760;9.178;2022-12-13T04:44:39;32.35;;;14.43;;
6763;SDS011;47432;48.760;9.178;2022-12-13T04:47:05;29.17;;;13.80;;
6763;SDS011;47432;48.760;9.178;2022-12-13T04:49:31;31.65;;;13.07;;
6763;SDS011;47432;48.760;9.178;2022-12-13T04:52:00;32.17;;;13.52;;
6763;SDS011;47432;48.760;9.178;2022-12-13T04:54:26;29.90;;;14.73;;
6763;SDS011;47432;48.760;9.178;2022-12-13T04:56:53;25.50;;;11.25;;
6763;SDS011;47432;48.760;9.178;2022-12-13T04:59:21;25.05;;;11.82;;
6763;SDS011;47432;48.760;9.178;2022-12-13T05:01:52;34.05;;;13.45;;
6763;SDS011;47432;48.760;9.178;2022-12-13T05:04:18;25.67;;;11.90;;
6763;SDS011;47432;48.760;9.178;2022-12-13T05:06:46;31.10;;;14.05;;
6763;SDS011;47432;48.760;9.178;2022-12-13T05:09:12;28.17;;;12.60;;
6763;SDS011;47432;48.760;9.178;2022-12-13T05:11:39;30.60;;;12.98;;
6763;SDS011;47432;48.760;9.178;2022-12-13T05:14:07;33.33;;;15.18;;
6763;SDS011;47432;48.760;9.178;2022-12-13T05:16:33;32.40;;;13.30;;
6763;SDS011;47432;48.760;9.178;2022-12-13T05:19:01;35.78;;;14.05;;
6763;SDS011;47432;48.760;9.178;2022-12-13T05:21:27;32.03;;;13.80;;
6763;SDS011;47432;48.760;9.178;2022-12-13T05:23:53;30.40;;;14.60;;
6763;SDS011;47432;48.760;9.178;2022-12-13T05:26:22;33.15;;;13.65;;
6763;SDS011;47432;48.760;9.178;2022-12-13T05:28:50;32.35;;;13.75;;
6763;SDS011;47432;48.760;9.178;2022-12-13T05:31:17;31.27;;;13.93;;
6763;SDS011;47432;48.760;9.178;2022-12-13T05:33:43;30.85;;;13.70;;
6763;SDS011;47432;48.760;9.178;2022-12-13T05:36:09;31.80;;;15.48;;
6763;SDS011;47432;48.760;9.178;2022-12-13T05:38:35;31.80;;;14.63;;
6763;SDS011;47432;48.760;9.178;2022-12-13T05:41:01;29.23;;;14.18;;
6763;SDS011;47432;48.760;9.178;2022-12-13T05:43:27;33.72;;;14.68;;
6763;SDS011;47432;48.760;9.178;2022-12-13T05:45:53;28.83;;;15.02;;
6763;SDS011;47432;48.760;9.178;2022-12-13T05:48:19;30.95;;;15.13;;
6763;SDS011;47432;48.760;9.178;2022-12-13T05:50:46;31.80;;;13.88;;
6763;SDS011;47432;48.760;9.178;2022-12-13T05:53:16;28.02;;;11.88;;
6763;SDS011;47432;48.760;9.178;2022-12-13T05:55:42;30.63;;;14.48;;
6763;SDS011;47432;48.760;9.178;2022-12-13T05:58:09;29.58;;;13.43;;
6763;SDS011;47432;48.760;9.178;2022-12-13T06:00:37;35.08;;;16.38;;
6763;SDS011;47432;48.760;9.178;2022-12-13T06:03:06;28.92;;;13.23;;
6763;SDS011;47432;48.760;9.178;2022-12-13T06:05:32;33.45;;;15.45;;
6763;SDS011;47432;48.760;9.178;2022-12-13T06:07:58;29.92;;;13.18;;
6763;SDS011;47432;48.760;9.178;2022-12-13T06:10:24;33.80;;;13.15;;
6763;SDS011;47432;48.760;9.178;2022-12-13T06:12:54;28.10;;;13.50;;
6763;SDS011;47432;48.760;9.178;2022-12-13T06:15:20;34.88;;;13.95;;
6763;SDS011;47432;48.760;9.178;2022-12-13T06:17:46;28.70;;;12.43;;
6763;SDS011;47432;48.760;9.178;2022-12-13T06:20:12;32.78;;;14.02;;
6763;SDS011;47432;48.760;9.178;2022-12-13T06:22:38;29.30;;;12.40;;
6763;SDS011;47432;48.760;9.178;2022-12-13T06:25:04;33.25;;;14.50;;
6763;SDS011;47432;48.760;9.178;2022-12-13T06:27:31;28.00;;;10.73;;
6763;SDS011;47432;48.760;9.178;2022-12-13T06:29:57;32.55;;;12.75;;
6763;SDS011;47432;48.760;9.178;2022-12-13T06:32:26;25.65;;;11.38;;
6763;SDS011;47432;48.760;9.178;2022-12-13T06:34:52;23.05;;;10.80;;
6763;SDS011;47432;48.760;9.178;2022-12-13T06:37:17;25.63;;;11.90;;
6763;SDS011;47432;48.760;9.178;2022-12-13T06:39:43;28.33;;;12.05;;
6763;SDS011;47432;48.760;9.178;2022-12-13T06:42:16;26.40;;;10.63;;
6763;SDS011;47432;48.760;9.178;2022-12-13T06:44:45;26.15;;;11.65;;
6763;SDS011;47432;48.760;9.178;2022-12-13T06:47:12;25.70;;;11.68;;
6763;SDS011;47432;48.760;9.178;2022-12-13T06:49:38;25.05;;;10.50;;
6763;SDS011;47432;48.760;9.178;2022-12-13T06:52:07;25.45;;;11.07;;
6763;SDS011;47432;48.760;9.178;2022-12-13T06:54:37;31.88;;;12.50;;
6763;SDS011;47432;48.760;9.178;2022-12-13T06:57:03;26.27;;;10.77;;
6763;SDS011;47432;48.760;9.178;2022-12-13T06:59:32;29.33;;;11.32;;
6763;SDS011;47432;48.760;9.178;2022-12-13T07:01:58;29.40;;;12.70;;
6763;SDS011;47432;48.760;9.178;2022-12-13T07:04:26;25.55;;;11.48;;
6763;SDS011;47432;48.760;9.178;2022-12-13T07:06:52;27.38;;;12.45;;
6763;SDS011;47432;48.760;9.178;2022-12-13T07:09:18;30.42;;;12.32;;
6763;SDS011;47432;48.760;9.178;2022-12-13T07:11:45;24.73;;;11.57;;
6763;SDS011;47432;48.760;9.178;2022-12-13T07:14:11;27.33;;;12.35;;
6763;SDS011;47432;48.760;9.178;2022-12-13T07:16:37;26.52;;;11.63;;
6763;SDS011;47432;48.760;9.178;2022-12-13T07:19:03;31.20;;;13.48;;
6763;SDS011;47432;48.760;9.178;2022-12-13T07:21:30;30.88;;;13.02;;
6763;SDS011;47432;48.760;9.178;2022-12-13T07:23:57;30.13;;;12.45;;
6763;SDS011;47432;48.760;9.178;2022-12-13T07:26:23;30.85;;;14.15;;
6763;SDS011;47432;48.760;9.178;2022-12-13T07:28:52;26.42;;;11.00;;
6763;SDS011;47432;48.760;9.178;2022-12-13T07:31:18;27.10;;;12.07;;
6763;SDS011;47432;48.760;9.178;2022-12-13T07:33:44;29.20;;;12.57;;
6763;SDS011;47432;48.760;9.178;2022-12-13T07:36:12;26.05;;;12.80;;
6763;SDS011;47432;48.760;9.178;2022-12-13T07:38:41;30.20;;;13.68;;
6763;SDS011;47432;48.760;9.178;2022-12-13T07:41:17;33.85;;;14.50;;
6763;SDS011;47432;48.760;9.178;2022-12-13T07:43:43;27.65;;;11.65;;
6763;SDS011;47432;48.760;9.178;2022-12-13T07:46:09;27.70;;;12.70;;
6763;SDS011;47432;48.760;9.178;2022-12-13T07:48:38;33.08;;;13.23;;
6763;SDS011;47432;48.760;9.178;2022-12-13T07:51:08;33.25;;;13.93;;
6763;SDS011;47432;48.760;9.178;2022-12-13T07:53:36;34.33;;;15.50;;
6763;SDS011;47432;48.760;9.178;2022-12-13T07:56:03;31.52;;;13.80;;
6763;SDS011;47432;48.760;9.178;2022-12-13T07:58:29;35.83;;;14.23;;
6763;SDS011;47432;48.760;9.178;2022-12-13T08:01:01;31.92;;;14.45;;
6763;SDS011;47432;48.760;9.178;2022-12-13T08:03:29;32.05;;;13.90;;
6763;SDS011;47432;48.760;9.178;2022-12-13T08:08:28;29.35;;;12.98;;
6763;SDS011;47432;48.760;9.178;2022-12-13T08:10:54;29.92;;;14.27;;
6763;SDS011;47432;48.760;9.178;2022-12-13T08:13:25;33.22;;;13.20;;
6763;SDS011;47432;48.760;9.178;2022-12-13T08:15:56;32.35;;;14.95;;
6763;SDS011;47432;48.760;9.178;2022-12-13T08:18:25;35.45;;;17.77;;
6763;SDS011;47432;48.760;9.178;2022-12-13T08:20:55;29.13;;;15.05;;
6763;SDS011;47432;48.760;9.178;2022-12-13T08:23:23;32.38;;;15.13;;
6763;SDS011;47432;48.760;9.178;2022-12-13T08:25:52;35.60;;;15.02;;
6763;SDS011;47432;48.760;9.178;2022-12-13T08:28:20;35.83;;;16.88;;
6763;SDS011;47432;48.760;9.178;2022-12-13T08:30:49;34.47;;;16.30;;
6763;SDS011;47432;48.760;9.178;2022-12-13T08:33:16;36.53;;;15.15;;
6763;SDS011;47432;48.760;9.178;2022-12-13T08:35:42;36.78;;;18.10;;
6763;SDS011;47432;48.760;9.178;2022-12-13T08:38:11;36.63;;;16.98;;
6763;SDS011;47432;48.760;9.178;2022-12-13T08:40:37;39.00;;;18.02;;
6763;SDS011;47432;48.760;9.178;2022-12-13T08:43:03;33.20;;;16.02;;
6763;SDS011;47432;48.760;9.178;2022-12-13T08:45:30;39.87;;;17.70;;
6763;SDS011;47432;48.760;9.178;2022-12-13T08:48:01;33.28;;;15.68;;
6763;SDS011;47432;48.760;9.178;2022-12-13T08:50:27;39.08;;;17.25;;
6763;SDS011;47432;48.760;9.178;2022-12-13T08:52:54;34.53;;;16.30;;
6763;SDS011;47432;48.760;9.178;2022-12-13T08:55:20;32.53;;;14.95;;
6763;SDS011;47432;48.760;9.178;2022-12-13T08:57:49;37.55;;;16.50;;
6763;SDS011;47432;48.760;9.178;2022-12-13T09:00:16;31.58;;;14.70;;
6763;SDS011;47432;48.760;9.178;2022-12-13T09:02:43;34.20;;;14.90;;
6763;SDS011;47432;48.760;9.178;2022-12-13T09:05:09;38.08;;;16.80;;
6763;SDS011;47432;48.760;9.178;2022-12-13T09:07:37;31.13;;;14.70;;
6763;SDS011;47432;48.760;9.178;2022-12-13T09:10:07;34.13;;;15.80;;
6763;SDS011;47432;48.760;9.178;2022-12-13T09:12:39;34.42;;;16.13;;
6763;SDS011;47432;48.760;9.178;2022-12-13T09:15:06;36.92;;;15.65;;
6763;SDS011;47432;48.760;9.178;2022-12-13T09:17:33;36.28;;;16.85;;
6763;SDS011;47432;48.760;9.178;2022-12-13T09:20:04;40.10;;;17.83;;
6763;SDS011;47432;48.760;9.178;2022-12-13T09:22:35;31.85;;;16.05;;
6763;SDS011;47432;48.760;9.178;2022-12-13T09:25:04;38.30;;;16.90;;
6763;SDS011;47432;48.760;9.178;2022-12-13T09:27:30;34.78;;;16.92;;
6763;SDS011;47432;48.760;9.178;2022-12-13T09:29:59;32.30;;;15.40;;
6763;SDS011;47432;48.760;9.178;2022-12-13T09:32:29;36.20;;;15.77;;
6763;SDS011;47432;48.760;9.178;2022-12-13T09:34:56;39.35;;;17.58;;
6763;SDS011;47432;48.760;9.178;2022-12-13T09:37:22;28.00;;;14.13;;
6763;SDS011;47432;48.760;9.178;2022-12-13T09:39:51;32.70;;;15.48;;
6763;SDS011;47432;48.760;9.178;2022-12-13T09:42:28;32.67;;;15.73;;
6763;SDS011;47432;48.760;9.178;2022-12-13T09:45:00;32.45;;;14.15;;
6763;SDS011;47432;48.760;9.178;2022-12-13T09:47:31;26.70;;;14.03;;
6763;SDS011;47432;48.760;9.178;2022-12-13T09:52:48;37.23;;;16.67;;
6763;SDS011;47432;48.760;9.178;2022-12-13T09:55:33;31.80;;;14.97;;
6763;SDS011;47432;48.760;9.178;2022-12-13T09:58:07;31.00;;;15.77;;
6763;SDS011;47432;48.760;9.178;2022-12-13T10:00:44;30.43;;;14.20;;
6763;SDS011;47432;48.760;9.178;2022-12-13T10:03:15;36.10;;;16.83;;
6763;SDS011;47432;48.760;9.178;2022-12-13T10:05:49;27.97;;;12.87;;
6763;SDS011;47432;48.760;9.178;2022-12-13T10:08:36;35.70;;;15.40;;
6763;SDS011;47432;48.760;9.178;2022-12-13T10:11:11;30.67;;;13.33;;
6763;SDS011;47432;48.760;9.178;2022-12-13T10:13:55;30.63;;;13.43;;
6763;SDS011;47432;48.760;9.178;2022-12-13T10:16:26;30.20;;;13.37;;
6763;SDS011;47432;48.760;9.178;2022-12-13T10:19:00;31.47;;;14.53;;
6763;SDS011;47432;48.760;9.178;2022-12-13T10:21:28;27.83;;;13.90;;
6763;SDS011;47432;48.760;9.178;2022-12-13T10:24:02;33.17;;;14.57;;
6763;SDS011;47432;48.760;9.178;2022-12-13T10:26:34;24.47;;;12.87;;
6763;SDS011;47432;48.760;9.178;2022-12-13T10:29:02;28.27;;;13.97;;
6763;SDS011;47432;48.760;9.178;2022-12-13T10:31:41;34.40;;;15.00;;
6763;SDS011;47432;48.760;9.178;2022-12-13T10:34:28;35.27;;;14.70;;
6763;SDS011;47432;48.760;9.178;2022-12-13T10:37:04;31.10;;;13.60;;
6763;SDS011;47432;48.760;9.178;2022-12-13T10:39:54;28.20;;;13.37;;
6763;SDS011;47432;48.760;9.178;2022-12-13T10:42:20;34.67;;;15.27;;
6763;SDS011;47432;48.760;9.178;2022-12-13T10:44:53;32.93;;;14.73;;
6763;SDS011;47432;48.760;9.178;2022-12-13T10:47:37;28.53;;;12.80;;
6763;SDS011;47432;48.760;9.178;2022-12-13T10:50:21;27.43;;;13.90;;
6763;SDS011;47432;48.760;9.178;2022-12-13T10:52:51;28.73;;;14.20;;
6763;SDS011;47432;48.760;9.178;2022-12-13T10:55:23;27.93;;;13.43;;
6763;SDS011;47432;48.760;9.178;2022-12-13T10:57:56;30.57;;;12.90;;
6763;SDS011;47432;48.760;9.178;2022-12-13T11:00:30;30.83;;;14.57;;
6763;SDS011;47432;48.760;9.178;2022-12-13T11:03:06;38.73;;;16.23;;
6763;SDS011;47432;48.760;9.178;2022-12-13T11:05:34;26.17;;;13.70;;
6763;SDS011;47432;48.760;9.178;2022-12-13T11:08:11;32.03;;;14.03;;
6763;SDS011;47432;48.760;9.178;2022-12-13T11:10:54;25.63;;;12.63;;
6763;SDS011;47432;48.760;9.178;2022-12-13T11:13:44;22.70;;;11.73;;
6763;SDS011;47432;48.760;9.178;2022-12-13T11:16:29;33.30;;;13.23;;
6763;SDS011;47432;48.760;9.178;2022-12-13T11:19:03;25.13;;;12.47;;
6763;SDS011;47432;48.760;9.178;2022-12-13T11:21:44;28.20;;;12.10;;
6763;SDS011;47432;48.760;9.178;2022-12-13T11:24:20;30.03;;;12.90;;
6763;SDS011;47432;48.760;9.178;2022-12-13T11:27:20;31.53;;;14.13;;
6763;SDS011;47432;48.760;9.178;2022-12-13T11:32:44;25.37;;;11.77;;
6763;SDS011;47432;48.760;9.178;2022-12-13T11:35:40;28.73;;;13.43;;
6763;SDS011;47432;48.760;9.178;2022-12-13T11:40:55;28.40;;;12.40;;
6763;SDS011;47432;48.760;9.178;2022-12-13T11:43:25;24.30;;;11.27;;
6763;SDS011;47432;48.760;9.178;2022-12-13T11:46:01;24.13;;;11.90;;
6763;SDS011;47432;48.760;9.178;2022-12-13T11:48:42;29.77;;;12.53;;
6763;SDS011;47432;48.760;9.178;2022-12-13T11:51:16;23.30;;;11.87;;
6763;SDS011;47432;48.760;9.178;2022-12-13T11:53:57;25.43;;;12.33;;
6763;SDS011;47432;48.760;9.178;2022-12-13T11:56:37;22.97;;;10.83;;
6763;SDS011;47432;48.760;9.178;2022-12-13T11:59:08;25.37;;;11.00;;
6763;SDS011;47432;48.760;9.178;2022-12-13T12:01:51;25.97;;;11.90;;
6763;SDS011;47432;48.760;9.178;2022-12-13T12:04:37;26.40;;;12.43;;
6763;SDS011;47432;48.760;9.178;2022-12-13T12:07:24;26.70;;;11.70;;
6763;SDS011;47432;48.760;9.178;2022-12-13T12:12:56;30.37;;;12.00;;
6763;SDS011;47432;48.760;9.178;2022-12-13T12:16:05;27.13;;;13.07;;
6763;SDS011;47432;48.760;9.178;2022-12-13T12:18:55;25.57;;;11.00;;
6763;SDS011;47432;48.760;9.178;2022-12-13T12:21:28;26.60;;;12.17;;
6763;SDS011;47432;48.760;9.178;2022-12-13T12:27:11;23.53;;;11.33;;
6763;SDS011;47432;48.760;9.178;2022-12-13T12:32:44;23.10;;;11.13;;
6763;SDS011;47432;48.760;9.178;2022-12-13T12:35:18;27.90;;;12.80;;
6763;SDS011;47432;48.760;9.178;2022-12-13T12:40:46;28.23;;;12.37;;
6763;SDS011;47432;48.760;9.178;2022-12-13T12:43:43;32.13;;;12.40;;
6763;SDS011;47432;48.760;9.178;2022-12-13T12:46:33;30.23;;;11.77;;
6763;SDS011;47432;48.760;9.178;2022-12-13T13:00:27;24.10;;;11.33;;
6763;SDS011;47432;48.760;9.178;2022-12-13T13:03:23;29.03;;;13.37;;
6763;SDS011;47432;48.760;9.178;2022-12-13T13:05:55;23.90;;;11.13;;
6763;SDS011;47432;48.760;9.178;2022-12-13T13:08:41;28.70;;;11.40;;
6763;SDS011;47432;48.760;9.178;2022-12-13T13:11:37;26.60;;;12.43;;
6763;SDS011;47432;48.760;9.178;2022-12-13T13:16:51;27.03;;;12.77;;
6763;SDS011;47432;48.760;9.178;2022-12-13T13:21:49;27.60;;;12.63;;
6763;SDS011;47432;48.760;9.178;2022-12-13T13:26:58;25.17;;;12.57;;
6763;SDS011;47432;48.760;9.178;2022-12-13T13:29:44;26.23;;;11.80;;
6763;SDS011;47432;48.760;9.178;2022-12-13T13:34:47;25.93;;;12.00;;
6763;SDS011;47432;48.760;9.178;2022-12-13T13:42:26;29.47;;;11.90;;
6763;SDS011;47432;48.760;9.178;2022-12-13T13:45:49;27.63;;;11.77;;
6763;SDS011;47432;48.760;9.178;2022-12-13T13:47:51;29.60;;;10.87;;
6763;SDS011;47432;48.760;9.178;2022-12-13T13:50:44;22.93;;;10.93;;
6763;SDS011;47432;48.760;9.178;2022-12-13T13:56:49;25.03;;;11.30;;
6763;SDS011;47432;48.760;9.178;2022-12-13T13:59:43;26.70;;;11.10;;
6763;SDS011;47432;48.760;9.178;2022-12-13T14:30:23;25.23;;;11.00;;
6763;SDS011;47432;48.760;9.178;2022-12-13T14:32:53;23.93;;;9.50;;
6763;SDS011;47432;48.760;9.178;2022-12-13T14:35:23;25.67;;;11.30;;
6763;SDS011;47432;48.760;9.178;2022-12-13T14:37:55;23.57;;;9.90;;
6763;SDS011;47432;48.760;9.178;2022-12-13T14:40:30;23.50;;;10.57;;
6763;SDS011;47432;48.760;9.178;2022-12-13T14:43:03;24.17;;;11.03;;
6763;SDS011;47432;48.760;9.178;2022-12-13T14:45:34;25.83;;;11.20;;
6763;SDS011;47432;48.760;9.178;2022-12-13T14:48:05;22.33;;;11.13;;
6763;SDS011;47432;48.760;9.178;2022-12-13T14:50:38;28.03;;;10.70;;
6763;SDS011;47432;48.760;9.178;2022-12-13T14:53:13;25.87;;;12.30;;
6763;SDS011;47432;48.760;9.178;2022-12-13T14:58:28;25.30;;;12.00;;
6763;SDS011;47432;48.760;9.178;2022-12-13T15:00:54;23.27;;;10.77;;
6763;SDS011;47432;48.760;9.178;2022-12-13T15:03:22;27.23;;;15.63;;
6763;SDS011;47432;48.760;9.178;2022-12-13T15:05:53;26.20;;;12.87;;
6763;SDS011;47432;48.760;9.178;2022-12-13T15:08:23;22.67;;;12.07;;
6763;SDS011;47432;48.760;9.178;2022-12-13T15:10:51;27.93;;;11.40;;
6763;SDS011;47432;48.760;9.178;2022-12-13T15:13:35;22.80;;;10.20;;
6763;SDS011;47432;48.760;9.178;2022-12-13T15:16:19;24.37;;;11.60;;
6763;SDS011;47432;48.760;9.178;2022-12-13T15:19:05;22.43;;;10.70;;
6763;SDS011;47432;48.760;9.178;2022-12-13T15:21:38;23.47;;;11.50;;
6763;SDS011;47432;48.760;9.178;2022-12-13T15:24:07;21.93;;;9.77;;
6763;SDS011;47432;48.760;9.178;2022-12-13T15:26:36;21.87;;;11.30;;
6763;SDS011;47432;48.760;9.178;2022-12-13T15:29:05;26.50;;;9.80;;
6763;SDS011;47432;48.760;9.178;2022-12-13T15:31:32;24.20;;;10.73;;
6763;SDS011;47432;48.760;9.178;2022-12-13T15:36:53;23.37;;;10.67;;
6763;SDS011;47432;48.760;9.178;2022-12-13T15:39:21;21.77;;;8.83;;
6763;SDS011;47432;48.760;9.178;2022-12-13T15:41:52;25.10;;;9.93;;
6763;SDS011;47432;48.760;9.178;2022-12-13T15:46:51;18.73;;;8.93;;
6763;SDS011;47432;48.760;9.178;2022-12-13T15:49:32;22.33;;;9.63;;
6763;SDS011;47432;48.760;9.178;2022-12-13T15:54:52;22.30;;;9.83;;
6763;SDS011;47432;48.760;9.178;2022-12-13T15:57:23;19.87;;;8.53;;
6763;SDS011;47432;48.760;9.178;2022-12-13T16:02:48;20.23;;;8.37;;
6763;SDS011;47432;48.760;9.178;2022-12-13T16:05:24;24.67;;;10.73;;
6763;SDS011;47432;48.760;9.178;2022-12-13T16:07:55;21.13;;;9.43;;
6763;SDS011;47432;48.760;9.178;2022-12-13T16:10:24;19.00;;;8.60;;
6763;SDS011;47432;48.760;9.178;2022-12-13T16:12:51;24.63;;;11.77;;
6763;SDS011;47432;48.760;9.178;2022-12-13T16:15:21;19.20;;;9.40;;
6763;SDS011;47432;48.760;9.178;2022-12-13T16:17:53;23.43;;;8.43;;
6763;SDS011;47432;48.760;9.178;2022-12-13T16:20:31;19.97;;;8.87;;
6763;SDS011;47432;48.760;9.178;2022-12-13T16:22:58;19.63;;;8.83;;
6763;SDS011;47432;48.760;9.178;2022-12-13T16:25:24;21.70;;;8.97;;
6763;SDS011;47432;48.760;9.178;2022-12-13T16:27:50;22.40;;;9.97;;
6763;SDS011;47432;48.760;9.178;2022-12-13T16:30:27;20.33;;;9.23;;
6763;SDS011;47432;48.760;9.178;2022-12-13T16:33:32;18.63;;;8.57;;
6763;SDS011;47432;48.760;9.178;2022-12-13T16:35:58;24.70;;;8.60;;
6763;SDS011;47432;48.760;9.178;2022-12-13T16:38:24;19.63;;;7.90;;
6763;SDS011;47432;48.760;9.178;2022-12-13T16:40:52;23.00;;;10.23;;
6763;SDS011;47432;48.760;9.178;2022-12-13T16:43:20;20.93;;;9.17;;
6763;SDS011;47432;48.760;9.178;2022-12-13T16:45:49;17.83;;;7.53;;
6763;SDS011;47432;48.760;9.178;2022-12-13T16:48:18;25.60;;;9.70;;
6763;SDS011;47432;48.760;9.178;2022-12-13T16:50:46;20.20;;;8.00;;
6763;SDS011;47432;48.760;9.178;2022-12-13T16:53:14;22.93;;;9.43;;
6763;SDS011;47432;48.760;9.178;2022-12-13T16:55:40;24.30;;;10.37;;
6763;SDS011;47432;48.760;9.178;2022-12-13T16:58:09;22.23;;;11.33;;